createdAt,value
2018-03-28T00:01:32.596Z,4.00
2018-03-28T00:04:00.691Z,4.00
2018-03-28T00:06:28.192Z,4.00
2018-03-28T00:08:55.719Z,4.00
2018-03-28T00:11:23.306Z,4.00
2018-03-28T01:17:29.632Z,3.70
2018-03-28T02:12:14.212Z,3.60
2018-03-28T02:17:50.597Z,3.60
2018-03-28T03:20:53.556Z,3.00
2018-03-28T03:23:21.254Z,3.00
2018-03-28T03:25:48.867Z,3.00
2018-03-28T03:28:16.395Z,3.00
2018-03-28T03:30:44.705Z,2.90
2018-03-28T03:33:12.260Z,2.90
2018-03-28T03:35:39.791Z,2.90
2018-03-28T03:38:08.097Z,2.90
2018-03-28T03:40:35.828Z,2.90
2018-03-28T03:43:04.228Z,2.90
2018-03-28T03:45:31.771Z,2.90
2018-03-28T03:48:00.072Z,2.90
2018-03-28T03:50:27.597Z,2.90
2018-03-28T03:52:55.146Z,2.90
2018-03-28T03:55:23.166Z,2.90
2018-03-28T03:57:50.769Z,2.80
2018-03-28T04:00:18.380Z,2.80
2018-03-28T04:02:45.908Z,2.80
2018-03-28T04:05:14.234Z,2.70
2018-03-28T04:07:41.769Z,2.70
2018-03-28T04:10:09.329Z,2.70
2018-03-28T04:12:43.209Z,2.70
2018-03-28T04:21:11.086Z,2.70
2018-03-28T05:18:30.299Z,2.50
2018-03-28T06:12:36.961Z,2.60
2018-03-28T06:18:20.303Z,2.60
2018-03-28T06:26:52.877Z,2.60
2018-03-28T06:29:20.660Z,2.60
2018-03-28T06:31:48.224Z,2.60
2018-03-28T06:34:15.785Z,2.60
2018-03-28T06:36:43.332Z,2.60
2018-03-28T06:39:11.627Z,2.70
2018-03-28T06:41:39.176Z,2.70
2018-03-28T06:44:06.801Z,2.70
2018-03-28T06:46:34.564Z,2.60
2018-03-28T06:49:02.108Z,2.70
2018-03-28T06:51:29.651Z,2.70
2018-03-28T06:53:57.196Z,2.80
2018-03-28T06:56:24.736Z,2.80
2018-03-28T06:58:52.280Z,2.90
2018-03-28T07:01:20.611Z,2.80
2018-03-28T07:03:48.229Z,2.80
2018-03-28T07:06:16.597Z,2.90
2018-03-28T07:08:44.915Z,2.90
2018-03-28T07:11:12.467Z,2.90
2018-03-28T08:12:20.105Z,4.40
2018-03-28T08:14:47.646Z,4.20
2018-03-28T08:17:15.218Z,4.20
2018-03-28T08:22:35.884Z,4.30
2018-03-28T08:25:04.248Z,4.40
2018-03-28T08:27:31.949Z,4.30
2018-03-28T08:29:59.503Z,4.70
2018-03-28T08:32:27.032Z,4.40
2018-03-28T08:34:54.565Z,4.20
2018-03-28T08:37:22.127Z,4.00
2018-03-28T08:39:49.664Z,4.20
2018-03-28T08:42:17.218Z,4.00
2018-03-28T08:44:44.746Z,4.00
2018-03-28T08:47:13.074Z,4.10
2018-03-28T08:49:40.677Z,4.00
2018-03-28T08:52:09.059Z,4.20
2018-03-28T08:54:36.650Z,4.20
2018-03-28T08:57:04.292Z,4.10
2018-03-28T08:59:32.591Z,4.00
2018-03-28T09:02:00.128Z,4.00
2018-03-28T09:04:28.684Z,4.10
2018-03-28T09:06:56.833Z,4.20
2018-03-28T09:09:24.369Z,4.10
2018-03-28T09:11:51.939Z,3.90
2018-03-28T11:24:11.483Z,5.30
2018-03-28T11:26:39.897Z,5.30
2018-03-28T11:29:07.457Z,5.30
2018-03-28T11:31:35.009Z,5.40
2018-03-28T11:34:02.590Z,5.40
2018-03-28T11:36:30.135Z,5.40
2018-03-28T11:38:57.698Z,5.60
2018-03-28T11:41:25.268Z,5.40
2018-03-28T11:43:53.217Z,5.20
2018-03-28T11:46:20.797Z,5.10
2018-03-28T11:48:48.349Z,5.00
2018-03-28T11:51:15.894Z,5.00
2018-03-28T11:53:43.435Z,5.00
2018-03-28T11:56:11.743Z,4.90
2018-03-28T11:58:39.295Z,4.90
2018-03-28T12:01:07.051Z,4.80
2018-03-28T12:03:34.616Z,4.70
2018-03-28T12:06:02.168Z,4.80
2018-03-28T12:08:29.704Z,4.70
2018-03-28T12:10:58.028Z,4.60
2018-03-28T12:13:25.568Z,4.60
2018-03-28T12:18:56.448Z,4.70
2018-03-28T12:21:24.003Z,4.80
2018-03-28T13:12:36.954Z,5.50
2018-03-28T13:21:10.653Z,5.50
2018-03-28T15:14:05.893Z,5.60
2018-03-28T15:16:33.469Z,5.40
2018-03-28T16:40:52.077Z,4.20
2018-03-28T16:43:19.632Z,3.90
2018-03-28T16:45:47.188Z,3.80
2018-03-28T16:48:14.737Z,3.80
2018-03-28T16:50:42.280Z,3.80
2018-03-28T16:53:09.827Z,3.70
2018-03-28T16:55:38.164Z,3.70
2018-03-28T16:58:06.998Z,3.70
2018-03-28T17:00:35.325Z,3.70
2018-03-28T17:03:02.897Z,3.70
2018-03-28T17:05:30.921Z,3.70
2018-03-28T17:07:58.502Z,3.60
2018-03-28T17:10:26.059Z,3.60
2018-03-28T17:12:53.613Z,3.40
2018-03-28T17:18:26.933Z,3.40
2018-03-28T17:21:04.559Z,3.30
2018-03-28T18:15:12.623Z,2.90
2018-03-28T18:20:32.791Z,3.00
2018-03-28T18:23:00.330Z,3.00
2018-03-28T18:25:28.668Z,3.00
2018-03-28T18:27:56.204Z,3.00
2018-03-28T18:30:23.782Z,3.10
2018-03-28T18:32:51.358Z,3.00
2018-03-28T18:35:18.906Z,3.10
2018-03-28T18:37:46.521Z,3.00
2018-03-28T18:40:14.077Z,3.00
2018-03-28T18:42:41.636Z,3.10
2018-03-28T18:45:09.937Z,3.10
2018-03-28T18:47:37.556Z,3.10
2018-03-28T18:50:05.084Z,3.10
2018-03-28T18:52:32.830Z,3.20
2018-03-28T18:55:00.431Z,3.20
2018-03-28T18:57:27.980Z,3.20
2018-03-28T18:59:55.533Z,3.20
2018-03-28T19:02:23.098Z,3.20
2018-03-28T19:04:50.645Z,3.10
2018-03-28T19:07:18.179Z,3.10
2018-03-28T19:09:45.797Z,3.20
2018-03-28T19:12:14.154Z,3.20
2018-03-28T19:14:41.704Z,3.10
2018-03-28T20:15:08.081Z,2.20
2018-03-28T20:17:36.416Z,2.20
2018-03-28T22:18:16.083Z,0.80
2018-03-28T22:20:46.065Z,0.80
2018-03-28T23:12:13.790Z,0.70
